createdAt,value
2023-02-04T00:00:13.032Z,99621.52
2023-02-04T00:03:21.513Z,99622.88
2023-02-04T00:05:56.590Z,99630.85
2023-02-04T00:08:41.497Z,99635.91
2023-02-04T00:11:23.794Z,99637.02
2023-02-04T00:14:00.982Z,99640.39
2023-02-04T00:16:32.453Z,99642.81
2023-02-04T00:19:27.054Z,99646.27
2023-02-04T00:21:59.694Z,99647.35
2023-02-04T00:25:09.143Z,99656.10
2023-02-04T00:27:41.642Z,99668.50
2023-02-04T00:30:29.424Z,99671.99
2023-02-04T00:32:59.597Z,99681.46
2023-02-04T00:35:37.441Z,99692.70
2023-02-04T00:38:29.298Z,99713.36
2023-02-04T00:41:12.915Z,99732.02
2023-02-04T00:43:49.197Z,99742.00
2023-02-04T00:46:23.524Z,99752.75
2023-02-04T00:49:06.224Z,99768.48
2023-02-04T00:51:47.325Z,99792.56
2023-02-04T00:54:40.322Z,99816.45
2023-02-04T00:57:18.290Z,99840.41
2023-02-04T01:00:12.329Z,99866.04
2023-02-04T01:06:33.404Z,99902.90
2023-02-04T01:09:12.560Z,99931.05
2023-02-04T01:12:01.087Z,99951.97
2023-02-04T01:15:03.086Z,99974.94
2023-02-04T01:18:06.497Z,99989.17
2023-02-04T01:21:15.132Z,100010.06
2023-02-04T01:24:02.611Z,100025.63
2023-02-04T01:27:29.070Z,100036.58
2023-02-04T01:29:46.219Z,100050.60
2023-02-04T01:32:27.433Z,100062.23
2023-02-04T01:35:46.302Z,100080.52
2023-02-04T01:38:26.619Z,100102.73
2023-02-04T01:41:03.154Z,100131.45
2023-02-04T01:43:49.164Z,100138.45
2023-02-04T01:46:32.724Z,100162.70
2023-02-04T01:49:33.267Z,100180.80
2023-02-04T01:52:39.641Z,100199.76
2023-02-04T01:55:39.857Z,100223.00
2023-02-04T01:58:48.441Z,100230.85
2023-02-04T02:01:54.371Z,100243.48
2023-02-04T02:04:49.269Z,100257.99
2023-02-04T02:07:59.622Z,100276.46
2023-02-04T02:10:47.935Z,100303.27
2023-02-04T02:17:25.767Z,100336.59
2023-02-04T02:20:44.664Z,100351.46
2023-02-04T02:24:06.586Z,100382.73
2023-02-04T02:26:51.932Z,100406.15
2023-02-04T02:33:13.950Z,100451.58
2023-02-04T02:36:00.183Z,100456.52
2023-02-04T02:39:03.078Z,100480.59
2023-02-04T02:41:35.083Z,100500.21
2023-02-04T02:44:13.604Z,100520.20
2023-02-04T02:47:03.358Z,100540.70
2023-02-04T02:49:42.713Z,100551.27
2023-02-04T02:52:32.767Z,100562.54
2023-02-04T02:55:29.246Z,100555.77
2023-02-04T02:58:53.532Z,100567.67
2023-02-04T03:01:37.367Z,100580.13
2023-02-04T03:04:15.658Z,100593.66
2023-02-04T03:06:50.253Z,100611.13
2023-02-04T03:09:29.580Z,100619.20
2023-02-04T03:12:05.072Z,100638.52
2023-02-04T03:14:43.692Z,100653.06
2023-02-04T03:17:32.191Z,100666.05
2023-02-04T03:20:05.759Z,100680.75
2023-02-04T03:22:38.338Z,100703.51
2023-02-04T03:25:26.660Z,100716.23
2023-02-04T03:28:20.638Z,100727.16
2023-02-04T03:30:56.853Z,100743.25
2023-02-04T03:33:38.158Z,100752.17
2023-02-04T03:36:18.085Z,100763.84
2023-02-04T03:42:00.719Z,100800.79
2023-02-04T03:44:37.909Z,100812.42
2023-02-04T03:47:06.699Z,100824.75
2023-02-04T03:50:09.837Z,100837.23
2023-02-04T03:52:48.692Z,100851.77
2023-02-04T03:55:27.497Z,100863.95
2023-02-04T03:57:59.357Z,100874.09
2023-02-04T04:00:35.915Z,100887.15
2023-02-04T04:03:32.284Z,100899.14
2023-02-04T04:06:11.012Z,100908.92
2023-02-04T04:08:58.695Z,100924.58
2023-02-04T04:11:32.378Z,100938.70
2023-02-04T04:14:12.914Z,100955.13
2023-02-04T04:17:02.458Z,100971.02
2023-02-04T04:19:38.168Z,100979.02
2023-02-04T04:22:23.380Z,100991.81
2023-02-04T04:24:56.853Z,101002.05
2023-02-04T04:27:36.773Z,101013.96
2023-02-04T04:30:08.365Z,101028.47
2023-02-04T04:32:45.410Z,101036.50
2023-02-04T04:35:19.956Z,101039.08
2023-02-04T04:38:03.682Z,101059.06
2023-02-04T04:40:42.084Z,101074.40
2023-02-04T04:43:19.316Z,101073.64
2023-02-04T04:45:53.612Z,101079.10
2023-02-04T04:48:28.922Z,101080.94
2023-02-04T04:50:59.186Z,101088.05
2023-02-04T04:53:32.508Z,101091.59
2023-02-04T04:56:16.918Z,101105.84
2023-02-04T04:58:56.683Z,101112.05
2023-02-04T05:01:33.790Z,101123.23
2023-02-04T05:04:11.545Z,101133.05
2023-02-04T05:06:49.552Z,101143.21
2023-02-04T05:09:40.860Z,101154.09
2023-02-04T05:12:28.083Z,101164.92
2023-02-04T05:15:14.180Z,101168.27
2023-02-04T05:17:53.320Z,101176.89
2023-02-04T05:20:32.469Z,101189.98
2023-02-04T05:23:05.949Z,101196.96
2023-02-04T05:25:38.812Z,101202.42
2023-02-04T05:28:08.915Z,101211.08
2023-02-04T05:30:54.422Z,101217.98
2023-02-04T05:33:34.367Z,101223.23
2023-02-04T05:36:30.665Z,101228.41
2023-02-04T05:39:09.534Z,101236.05
2023-02-04T05:41:44.310Z,101245.52
2023-02-04T05:44:35.351Z,101252.42
2023-02-04T05:47:04.821Z,101263.95
2023-02-04T05:49:43.902Z,101280.65
2023-02-04T05:52:17.247Z,101288.29
2023-02-04T05:54:59.921Z,101294.93
2023-02-04T05:57:36.872Z,101305.67
2023-02-04T06:00:12.557Z,101312.79
2023-02-04T06:02:57.006Z,101319.92
2023-02-04T06:05:43.891Z,101324.81
2023-02-04T06:08:22.632Z,101332.61
2023-02-04T06:11:34.618Z,101345.55
2023-02-04T06:14:34.923Z,101361.16
2023-02-04T06:17:09.569Z,101374.61
2023-02-04T06:20:22.837Z,101381.07
2023-02-04T06:23:27.985Z,101388.48
2023-02-04T06:26:05.607Z,101398.36
2023-02-04T06:28:42.066Z,101403.47
2023-02-04T06:31:27.364Z,101408.70
2023-02-04T06:34:00.677Z,101417.44
2023-02-04T06:36:35.492Z,101417.39
2023-02-04T06:39:13.914Z,101421.51
2023-02-04T06:41:49.179Z,101426.78
2023-02-04T06:44:22.820Z,101440.23
2023-02-04T06:46:52.211Z,101445.48
2023-02-04T06:49:29.110Z,101454.08
2023-02-04T06:52:03.564Z,101453.73
2023-02-04T06:54:52.380Z,101454.59
2023-02-04T06:58:07.466Z,101459.44
2023-02-04T07:00:38.958Z,101464.41
2023-02-04T07:03:12.848Z,101463.06
2023-02-04T07:05:41.137Z,101463.13
2023-02-04T07:08:09.548Z,101465.27
2023-02-04T07:10:39.075Z,101470.45
2023-02-04T07:13:07.385Z,101476.02
2023-02-04T07:15:36.912Z,101487.70
2023-02-04T07:18:05.268Z,101495.13
2023-02-04T07:20:37.942Z,101503.04
2023-02-04T07:23:08.597Z,101519.40
2023-02-04T07:25:38.393Z,101530.54
2023-02-04T07:28:06.778Z,101540.34
2023-02-04T07:30:35.303Z,101551.05
2023-02-04T07:33:04.187Z,101567.86
2023-02-04T07:35:32.334Z,101576.98
2023-02-04T07:38:05.048Z,101584.35
2023-02-04T07:40:34.425Z,101587.91
2023-02-04T07:43:03.255Z,101594.69
2023-02-04T07:45:34.072Z,101590.75
2023-02-04T07:48:03.426Z,101597.79
2023-02-04T07:50:32.266Z,101604.42
2023-02-04T07:53:03.882Z,101610.34
2023-02-04T07:55:31.965Z,101608.73
2023-02-04T07:58:03.000Z,101618.56
2023-02-04T08:00:31.972Z,101623.20
2023-02-04T08:03:01.298Z,101626.63
2023-02-04T08:05:32.797Z,101634.48
2023-02-04T08:08:01.529Z,101638.71
2023-02-04T08:10:32.610Z,101646.66
2023-02-04T08:13:01.094Z,101650.90
2023-02-04T08:15:29.185Z,101658.49
2023-02-04T08:17:57.705Z,101664.72
2023-02-04T08:20:26.497Z,101673.83
2023-02-04T08:23:00.088Z,101681.27
2023-02-04T08:25:30.634Z,101685.51
2023-02-04T08:28:13.146Z,101688.21
2023-02-04T08:31:10.645Z,101690.92
2023-02-04T08:33:39.762Z,101690.23
2023-02-04T08:36:11.048Z,101695.92
2023-02-04T08:38:40.753Z,101700.36
2023-02-04T08:41:10.460Z,101705.33
2023-02-04T08:43:39.550Z,101712.63
2023-02-04T08:46:11.481Z,101718.52
2023-02-04T08:48:40.044Z,101724.44
2023-02-04T08:51:08.697Z,101724.23
2023-02-04T08:53:37.354Z,101729.89
2023-02-04T08:56:06.918Z,101731.69
2023-02-04T08:58:38.331Z,101731.39
2023-02-04T09:01:07.103Z,101733.67
2023-02-04T09:03:41.910Z,101736.70
2023-02-04T09:06:15.763Z,101737.89
2023-02-04T09:08:44.298Z,101737.84
2023-02-04T09:11:13.208Z,101739.29
2023-02-04T09:13:43.199Z,101739.64
2023-02-04T09:16:13.312Z,101736.77
2023-02-04T09:18:47.941Z,101740.99
2023-02-04T09:21:16.112Z,101750.30
2023-02-04T09:23:46.115Z,101758.08
2023-02-04T09:26:14.893Z,101758.73
2023-02-04T09:28:48.588Z,101756.90
2023-02-04T09:31:17.900Z,101762.59
2023-02-04T09:33:46.503Z,101772.54
2023-02-04T09:36:15.396Z,101772.70
2023-02-04T09:38:44.178Z,101773.55
2023-02-04T09:41:16.558Z,101779.27
2023-02-04T09:43:45.905Z,101779.66
2023-02-04T09:46:24.305Z,101787.83
2023-02-04T09:48:52.640Z,101786.60
2023-02-04T09:51:28.091Z,101788.20
2023-02-04T09:54:09.896Z,101791.49
2023-02-04T09:56:40.431Z,101791.39
2023-02-04T09:59:22.303Z,101796.66
2023-02-04T10:02:00.846Z,101794.32
2023-02-04T10:04:32.872Z,101795.56
2023-02-04T10:07:03.541Z,101797.37
2023-02-04T10:09:32.753Z,101801.36
2023-02-04T10:12:01.214Z,101801.59
2023-02-04T10:14:29.379Z,101806.89
2023-02-04T10:17:00.969Z,101807.39
2023-02-04T10:19:30.627Z,101811.02
2023-02-04T10:21:59.328Z,101814.97
2023-02-04T10:24:29.980Z,101816.45
2023-02-04T10:27:10.649Z,101816.48
2023-02-04T10:29:42.121Z,101822.20
2023-02-04T10:32:33.630Z,101825.23
2023-02-04T10:35:05.786Z,101828.17
2023-02-04T10:37:34.491Z,101826.94
2023-02-04T10:40:07.603Z,101828.80
2023-02-04T10:42:36.701Z,101831.33
2023-02-04T10:45:06.326Z,101830.55
2023-02-04T10:47:35.656Z,101828.52
2023-02-04T10:50:27.691Z,101833.53
2023-02-04T10:53:17.465Z,101837.97
2023-02-04T10:55:48.467Z,101837.83
2023-02-04T10:58:27.334Z,101839.23
2023-02-04T11:00:58.139Z,101840.65
2023-02-04T11:03:32.825Z,101840.40
2023-02-04T11:06:20.835Z,101842.36
2023-02-04T11:09:00.474Z,101843.36
2023-02-04T11:11:38.022Z,101843.50
2023-02-04T11:14:28.619Z,101844.96
2023-02-04T11:16:59.946Z,101842.75
2023-02-04T11:19:38.316Z,101841.96
2023-02-04T11:22:24.856Z,101844.58
2023-02-04T11:24:53.027Z,101840.95
2023-02-04T11:27:38.313Z,101841.04
2023-02-04T11:30:22.796Z,101838.15
2023-02-04T11:33:19.830Z,101846.30
2023-02-04T11:36:11.632Z,101845.96
2023-02-04T11:39:17.210Z,101846.45
2023-02-04T11:41:46.977Z,101845.20
2023-02-04T11:44:19.623Z,101848.42
2023-02-04T11:47:01.341Z,101851.63
2023-02-04T11:49:41.147Z,101855.55
2023-02-04T11:52:24.756Z,101862.70
2023-02-04T11:55:03.844Z,101869.45
2023-02-04T11:58:00.606Z,101872.17
2023-02-04T12:00:45.808Z,101879.92
2023-02-04T12:03:33.800Z,101883.63
2023-02-04T12:06:06.143Z,101881.34
2023-02-04T12:08:36.976Z,101886.90
2023-02-04T12:11:11.326Z,101887.18
2023-02-04T12:13:55.028Z,101889.85
2023-02-04T12:16:28.174Z,101888.91
2023-02-04T12:19:18.472Z,101890.69
2023-02-04T12:21:59.001Z,101885.73
2023-02-04T12:24:44.653Z,101886.17
2023-02-04T12:27:18.919Z,101890.51
2023-02-04T12:29:53.660Z,101887.52
2023-02-04T12:32:31.261Z,101889.52
2023-02-04T12:35:14.357Z,101894.84
2023-02-04T12:37:59.949Z,101897.27
2023-02-04T12:40:36.872Z,101899.30
2023-02-04T12:43:17.380Z,101899.08
2023-02-04T12:45:52.296Z,101903.02
2023-02-04T12:48:30.664Z,101904.73
2023-02-04T12:51:14.155Z,101904.25
2023-02-04T12:53:54.716Z,101903.94
2023-02-04T12:56:28.700Z,101907.61
2023-02-04T12:59:15.869Z,101909.39
2023-02-04T13:01:50.017Z,101905.36
2023-02-04T13:04:21.988Z,101907.20
2023-02-04T13:07:02.239Z,101910.34
2023-02-04T13:09:37.459Z,101918.59
2023-02-04T13:12:06.314Z,101918.33
2023-02-04T13:14:34.667Z,101920.02
2023-02-04T13:17:28.617Z,101925.89
2023-02-04T13:19:55.426Z,101935.96
2023-02-04T13:22:24.813Z,101934.72
2023-02-04T13:24:57.697Z,101944.23
2023-02-04T13:27:30.759Z,101948.47
2023-02-04T13:30:14.225Z,101950.17
2023-02-04T13:32:43.185Z,101954.58
2023-02-04T13:35:14.391Z,101949.95
2023-02-04T13:37:42.431Z,101954.54
2023-02-04T13:40:11.489Z,101957.24
2023-02-04T13:42:40.511Z,101957.83
2023-02-04T13:45:12.749Z,101965.63
2023-02-04T13:47:54.463Z,101967.20
2023-02-04T13:50:23.141Z,101963.84
2023-02-04T13:52:51.577Z,101968.77
2023-02-04T13:55:21.218Z,101972.96
2023-02-04T13:57:51.878Z,101975.29
2023-02-04T14:00:22.968Z,101976.29
2023-02-04T14:02:55.897Z,101979.50
2023-02-04T14:05:59.074Z,101983.27
2023-02-04T14:08:32.357Z,101984.17
2023-02-04T14:11:12.763Z,101984.44
2023-02-04T14:13:45.604Z,101985.08
2023-02-04T14:16:28.200Z,101986.60
2023-02-04T14:19:01.991Z,101986.02
2023-02-04T14:21:52.851Z,101986.36
2023-02-04T14:24:28.155Z,101986.48
2023-02-04T14:27:08.494Z,101987.52
2023-02-04T14:29:44.779Z,101995.46
2023-02-04T14:32:14.811Z,101996.10
2023-02-04T14:34:50.994Z,101989.46
2023-02-04T14:37:30.937Z,101987.23
2023-02-04T14:40:03.482Z,101983.67
2023-02-04T14:42:46.192Z,101983.18
2023-02-04T14:45:23.554Z,101984.79
2023-02-04T14:48:06.005Z,101984.61
2023-02-04T14:50:43.945Z,101989.63
2023-02-04T14:53:16.905Z,101992.21
2023-02-04T14:55:57.520Z,101994.93
2023-02-04T14:58:33.067Z,102001.98
2023-02-04T15:01:02.312Z,102009.48
2023-02-04T15:03:31.194Z,102015.06
2023-02-04T15:05:59.890Z,102017.77
2023-02-04T15:08:47.062Z,102020.98
2023-02-04T15:15:38.370Z,102029.56
2023-02-04T15:18:35.292Z,102033.49
2023-02-04T15:21:39.206Z,102026.52
2023-02-04T15:29:04.322Z,102030.35
2023-02-04T15:38:49.442Z,102024.76
2023-02-04T15:41:18.768Z,102028.63
2023-02-04T15:44:04.963Z,102030.95
2023-02-04T15:46:37.829Z,102033.27
2023-02-04T15:49:09.197Z,102037.92
2023-02-04T15:51:43.081Z,102041.23
2023-02-04T15:54:18.354Z,102044.23
2023-02-04T15:56:57.267Z,102050.29
2023-02-04T15:59:29.778Z,102054.48
2023-02-04T16:02:07.952Z,102056.27
2023-02-04T16:05:02.874Z,102055.63
2023-02-04T16:07:54.341Z,102056.98
2023-02-04T16:10:54.466Z,102060.95
2023-02-04T16:18:05.362Z,102071.11
2023-02-04T16:21:17.513Z,102077.34
2023-02-04T16:23:55.367Z,102081.17
2023-02-04T16:26:44.421Z,102088.45
2023-02-04T16:29:22.385Z,102095.61
2023-02-04T16:32:01.574Z,102096.16
2023-02-04T16:34:48.087Z,102098.59
2023-02-04T16:37:31.794Z,102102.77
2023-02-04T16:40:08.758Z,102102.58
2023-02-04T16:42:55.455Z,102108.62
2023-02-04T16:45:35.356Z,102108.77
2023-02-04T16:48:05.352Z,102111.13
2023-02-04T16:50:42.366Z,102110.39
2023-02-04T16:53:25.853Z,102111.86
2023-02-04T16:56:14.513Z,102116.46
2023-02-04T16:59:38.342Z,102123.18
2023-02-04T17:02:41.970Z,102128.58
2023-02-04T17:09:17.606Z,102134.33
2023-02-04T17:12:08.223Z,102136.08
2023-02-04T17:15:11.479Z,102136.32
2023-02-04T17:18:32.552Z,102140.34
2023-02-04T17:22:04.394Z,102139.95
2023-02-04T17:25:29.452Z,102147.05
2023-02-04T17:28:31.824Z,102149.80
2023-02-04T17:31:37.509Z,102152.80
2023-02-04T17:34:35.306Z,102151.89
2023-02-04T17:37:34.645Z,102154.05
2023-02-04T17:40:24.737Z,102165.05
2023-02-04T17:43:24.031Z,102169.05
2023-02-04T17:46:07.202Z,102169.48
2023-02-04T17:49:10.858Z,102174.85
2023-02-04T17:52:16.459Z,102173.47
2023-02-04T17:55:02.908Z,102177.07
2023-02-04T17:58:00.205Z,102182.78
2023-02-04T18:02:43.545Z,102189.11
2023-02-04T18:09:07.572Z,102189.34
2023-02-04T18:11:55.777Z,102196.43
2023-02-04T18:14:59.981Z,102191.45
2023-02-04T18:17:50.892Z,102189.48
2023-02-04T18:20:45.565Z,102183.81
2023-02-04T18:24:49.530Z,102182.91
2023-02-04T18:27:37.272Z,102189.49
2023-02-04T18:30:51.890Z,102190.95
2023-02-04T18:33:47.343Z,102190.83
2023-02-04T18:36:45.179Z,102189.87
2023-02-04T18:39:44.956Z,102192.29
2023-02-04T18:42:37.416Z,102191.64
2023-02-04T18:49:42.778Z,102191.35
2023-02-04T18:52:37.333Z,102191.14
2023-02-04T18:55:55.014Z,102191.36
2023-02-04T18:59:01.904Z,102193.42
2023-02-04T19:01:42.516Z,102200.21
2023-02-04T19:04:39.583Z,102208.58
2023-02-04T19:07:41.671Z,102208.81
2023-02-04T19:11:18.764Z,102208.95
2023-02-04T19:15:10.265Z,102205.42
2023-02-04T19:18:37.178Z,102207.23
2023-02-04T19:22:21.459Z,102210.85
2023-02-04T19:26:34.856Z,102211.08
2023-02-04T19:29:59.390Z,102209.06
2023-02-04T19:33:00.580Z,102204.13
2023-02-04T19:35:49.007Z,102207.67
2023-02-04T19:38:47.412Z,102204.91
2023-02-04T19:41:49.666Z,102204.67
2023-02-04T19:44:43.757Z,102210.98
2023-02-04T19:48:16.359Z,102215.55
2023-02-04T19:50:58.918Z,102221.09
2023-02-04T19:53:42.708Z,102222.09
2023-02-04T19:57:01.796Z,102219.83
2023-02-04T19:59:44.235Z,102221.23
2023-02-04T20:02:38.352Z,102217.52
2023-02-04T20:05:20.530Z,102216.20
2023-02-04T20:07:55.582Z,102213.95
2023-02-04T20:10:31.687Z,102217.83
2023-02-04T20:13:20.226Z,102218.48
2023-02-04T20:16:12.460Z,102221.20
2023-02-04T20:19:05.617Z,102220.31
2023-02-04T20:22:08.364Z,102222.15
2023-02-04T20:25:04.488Z,102219.83
2023-02-04T20:28:24.836Z,102220.44
2023-02-04T20:37:02.777Z,102222.53
2023-02-04T20:40:54.244Z,102218.35
2023-02-04T21:25:35.480Z,102255.80
2023-02-04T21:28:20.161Z,102256.41
2023-02-04T21:31:16.963Z,102263.80
2023-02-04T21:35:13.266Z,102266.85
2023-02-04T21:38:41.161Z,102263.47
2023-02-04T21:47:20.483Z,102268.84
2023-02-04T21:50:12.450Z,102268.63
2023-02-04T21:53:09.395Z,102269.91
2023-02-04T21:55:51.397Z,102267.55
2023-02-04T21:59:05.362Z,102269.88
2023-02-04T22:02:08.252Z,102279.88
2023-02-04T22:05:18.283Z,102282.57
2023-02-04T22:08:18.142Z,102284.91
2023-02-04T22:11:01.279Z,102284.77
2023-02-04T22:14:04.992Z,102279.39
2023-02-04T22:17:08.589Z,102283.60
2023-02-04T22:20:57.343Z,102286.80
2023-02-04T22:23:59.007Z,102300.26
2023-02-04T22:27:08.372Z,102299.67
2023-02-04T22:30:10.758Z,102299.58
2023-02-04T22:33:27.866Z,102308.00
2023-02-04T23:01:30.735Z,102339.59
2023-02-04T23:10:27.947Z,102351.85
2023-02-04T23:13:28.428Z,102359.98
2023-02-04T23:16:13.767Z,102364.52
2023-02-04T23:19:29.429Z,102362.64
2023-02-04T23:22:34.357Z,102362.29
2023-02-04T23:25:28.594Z,102368.30
2023-02-04T23:28:20.324Z,102366.54
2023-02-04T23:31:46.264Z,102364.28
2023-02-04T23:34:44.062Z,102363.52
2023-02-04T23:37:18.004Z,102365.19
2023-02-04T23:40:15.710Z,102369.54
2023-02-04T23:43:11.029Z,102369.54
2023-02-04T23:45:59.024Z,102361.83
2023-02-04T23:49:01.011Z,102366.04
2023-02-04T23:51:48.103Z,102368.70
2023-02-04T23:54:42.486Z,102371.90
